Time;durP1;ratioP1;P1;durP2;ratioP2;P2;SDS_P1;SDS_P2;PMS_P1;PMS_P2;Temp;Humidity;BMP_temperature;BMP_pressure;BME280_temperature;BME280_humidity;BME280_pressure;Samples;Min_cycle;Max_cycle;Signal;HPM_P1;HPM_P2
2021/09/18 00:02:48;;;;;;;;;;;;;;;;;;10338885;28;19933;-77
2021/09/18 00:07:51;;;;;;;;;;;;;;;;;;10338715;28;19980;-76
2021/09/18 00:12:55;;;;;;;;;;;;;;;;;;10339692;28;19951;-71
2021/09/18 00:17:58;;;;;;;;;;;;;;;;;;10339541;28;19937;-76
2021/09/18 00:23:00;;;;;;;;;;;;;;;;;;10337824;28;20308;-72
2021/09/18 00:28:03;;;;;;;;;;;;;;;;;;10339051;28;19930;-72
2021/09/18 00:33:06;;;;;;;;;;;;;;;;;;10339133;28;19926;-72
2021/09/18 00:38:08;;;;;;;;;;;;;;;;;;10317853;28;20412;-73
2021/09/18 00:43:13;;;;;;;;;;;;;;;;;;10336328;28;19965;-77
2021/09/18 00:48:16;;;;;;;;;;;;;;;;;;10335377;28;19925;-72
2021/09/18 00:53:19;;;;;;;;;;;;;;;;;;10336869;28;19957;-73
2021/09/18 00:58:21;;;;;;;;;;;;;;;;;;10335649;28;20004;-72
2021/09/18 01:03:26;;;;;;;;;;;;;;;;;;10337324;28;19976;-72
2021/09/18 01:08:29;;;;;;;;;;;;;;;;;;10337627;28;19926;-72
2021/09/18 01:13:34;;;;;;;;;;;;;;;;;;10337464;28;20319;-77
2021/09/18 01:18:37;;;;;;;;;;;;;;;;;;10336210;28;20004;-72
2021/09/18 01:23:41;;;;;;;;;;;;;;;;;;10335379;28;19925;-76
2021/09/18 01:28:44;;;;;;;;;;;;;;;;;;10336395;28;19926;-72
2021/09/18 01:33:46;;;;;;;;;;;;;;;;;;10335688;28;19926;-72
2021/09/18 01:38:49;;;;;;;;;;;;;;;;;;10336175;28;19932;-72
2021/09/18 01:43:52;;;;;;;;;;;;;;;;;;10334736;28;19926;-77
2021/09/18 01:48:54;;;;;;;;;;;;;;;;;;10334631;28;20113;-76
2021/09/18 01:53:59;;;;;;;;;;;;;;;;;;10334789;28;20005;-76
2021/09/18 01:59:01;;;;;;;;;;;;;;;;;;10334063;28;19926;-76
2021/09/18 02:04:04;;;;;;;;;;;;;;;;;;10333914;28;19932;-73
2021/09/18 02:09:10;;;;;;;;;;;;;;;;;;10334851;28;20044;-72
2021/09/18 02:14:17;;;;;;;;;;;;;;;;;;10335613;28;19932;-73
2021/09/18 02:19:20;;;;;;;;;;;;;;;;;;10332771;28;19957;-77
2021/09/18 02:24:22;;;;;;;;;;;;;;;;;;10334517;28;19926;-72
2021/09/18 02:29:27;;;;;;;;;;;;;;;;;;10333174;28;20018;-77
2021/09/18 02:34:31;;;;;;;;;;;;;;;;;;10333801;28;19937;-76
2021/09/18 02:39:34;;;;;;;;;;;;;;;;;;10332339;28;20282;-73
2021/09/18 02:44:38;;;;;;;;;;;;;;;;;;10332292;28;19932;-72
2021/09/18 02:49:40;;;;;;;;;;;;;;;;;;10334342;28;20130;-72
2021/09/18 02:54:43;;;;;;;;;;;;;;;;;;10333993;28;20013;-76
2021/09/18 02:59:46;;;;;;;;;;;;;;;;;;10333429;28;19926;-72
2021/09/18 03:04:52;;;;;;;;;;;;;;;;;;10333245;28;20028;-73
2021/09/18 03:09:55;;;;;;;;;;;;;;;;;;10331529;28;19926;-72
2021/09/18 03:14:58;;;;;;;;;;;;;;;;;;10333063;28;19930;-72
2021/09/18 03:20:04;;;;;;;;;;;;;;;;;;10334911;28;19953;-72
2021/09/18 03:25:06;;;;;;;;;;;;;;;;;;10341936;28;19969;-72
2021/09/18 03:30:09;;;;;;;;;;;;;;;;;;10340960;28;19925;-77
2021/09/18 03:35:13;;;;;;;;;;;;;;;;;;10338776;28;20001;-77
2021/09/18 03:40:19;;;;;;;;;;;;;;;;;;10340557;28;20436;-77
2021/09/18 03:45:23;;;;;;;;;;;;;;;;;;10340416;28;19926;-77
2021/09/18 03:50:26;;;;;;;;;;;;;;;;;;10340613;28;19925;-77
2021/09/18 03:55:30;;;;;;;;;;;;;;;;;;10339260;28;19942;-72
2021/09/18 04:00:33;;;;;;;;;;;;;;;;;;10338704;28;19926;-77
2021/09/18 04:05:38;;;;;;;;;;;;;;;;;;10338196;28;19926;-77
2021/09/18 04:10:42;;;;;;;;;;;;;;;;;;10340160;28;19933;-72
2021/09/18 04:15:46;;;;;;;;;;;;;;;;;;10339395;28;20404;-72
2021/09/18 04:20:52;;;;;;;;;;;;;;;;;;10337861;28;19926;-76
2021/09/18 04:25:55;;;;;;;;;;;;;;;;;;10338911;28;19926;-77
2021/09/18 04:30:58;;;;;;;;;;;;;;;;;;10337643;28;20017;-77
2021/09/18 04:36:00;;;;;;;;;;;;;;;;;;10339073;28;19926;-77
2021/09/18 04:41:04;;;;;;;;;;;;;;;;;;10338045;28;20016;-72
2021/09/18 04:46:07;;;;;;;;;;;;;;;;;;10338395;28;19926;-76
2021/09/18 04:51:13;;;;;;;;;;;;;;;;;;10338558;28;20357;-72
2021/09/18 04:56:18;;;;;;;;;;;;;;;;;;10337012;28;20017;-76
2021/09/18 05:01:22;;;;;;;;;;;;;;;;;;10336441;28;19933;-77
2021/09/18 05:06:25;;;;;;;;;;;;;;;;;;10336267;28;19946;-73
2021/09/18 05:11:28;;;;;;;;;;;;;;;;;;10336180;28;20020;-77
2021/09/18 05:16:34;;;;;;;;;;;;;;;;;;10335993;28;19926;-72
2021/09/18 05:21:39;;;;;;;;;;;;;;;;;;10336645;28;19926;-77
2021/09/18 05:26:48;;;;;;;;;;;;;;;;;;10334920;28;19925;-77
2021/09/18 05:31:51;;;;;;;;;;;;;;;;;;10333875;28;19929;-77
2021/09/18 05:36:54;;;;;;;;;;;;;;;;;;10335400;28;20393;-77
2021/09/18 05:41:56;;;;;;;;;;;;;;;;;;10334049;28;20386;-77
2021/09/18 05:46:59;;;;;;;;;;;;;;;;;;10335393;28;19956;-77
2021/09/18 05:52:02;;;;;;;;;;;;;;;;;;10336138;28;20273;-73
2021/09/18 05:57:08;;;;;;;;;;;;;;;;;;10335141;28;19965;-77
2021/09/18 06:02:14;;;;;;;;;;;;;;;;;;10333018;28;20451;-78
2021/09/18 06:07:18;;;;;;;;;;;;;;;;;;10333747;28;19926;-77
2021/09/18 06:12:22;;;;;;;;;;;;;;;;;;10334662;28;20317;-69
2021/09/18 06:17:25;;;;;;;;;;;;;;;;;;10330482;28;19973;-69
2021/09/18 06:22:27;;;;;;;;;;;;;;;;;;10328024;28;20300;-74
2021/09/18 06:27:31;;;;;;;;;;;;;;;;;;10332788;28;20460;-73
2021/09/18 06:32:33;;;;;;;;;;;;;;;;;;10342619;28;19932;-77
2021/09/18 06:37:37;;;;;;;;;;;;;;;;;;10316523;28;19933;-75
2021/09/18 06:42:39;;;;;;;;;;;;;;;;;;10333444;28;19926;-75
2021/09/18 06:47:42;;;;;;;;;;;;;;;;;;10332999;28;19930;-75
2021/09/18 06:52:45;;;;;;;;;;;;;;;;;;10329076;28;20023;-75
2021/09/18 06:57:47;;;;;;;;;;;;;;;;;;10335751;28;19926;-76
2021/09/18 07:02:50;;;;;;;;;;;;;;;;;;10333696;28;19932;-72
2021/09/18 07:07:56;;;;;;;;;;;;;;;;;;10332205;28;19926;-75
2021/09/18 07:12:58;;;;;;;;;;;;;;;;;;10333172;28;19937;-75
2021/09/18 07:18:01;;;;;;;;;;;;;;;;;;10330980;28;20385;-74
2021/09/18 07:23:04;;;;;;;;;;;;;;;;;;10328451;28;19933;-75
2021/09/18 07:28:07;;;;;;;;;;;;;;;;;;10332109;28;20016;-75
2021/09/18 07:33:10;;;;;;;;;;;;;;;;;;10359451;28;19926;-75
2021/09/18 07:38:14;;;;;;;;;;;;;;;;;;10369245;28;19929;-75
2021/09/18 07:43:16;;;;;;;;;;;;;;;;;;10370941;28;19925;-72
2021/09/18 07:48:20;;;;;;;;;;;;;;;;;;10372686;28;20343;-76
2021/09/18 07:53:22;;;;;;;;;;;;;;;;;;10372784;28;19929;-76
2021/09/18 07:58:25;;;;;;;;;;;;;;;;;;10372146;28;19979;-75
2021/09/18 08:03:28;;;;;;;;;;;;;;;;;;10372332;28;19969;-76
2021/09/18 08:08:30;;;;;;;;;;;;;;;;;;10360479;28;19926;-72
2021/09/18 08:13:33;;;;;;;;;;;;;;;;;;10380204;28;19929;-76
2021/09/18 08:18:36;;;;;;;;;;;;;;;;;;10378392;28;19947;-75
2021/09/18 08:23:40;;;;;;;;;;;;;;;;;;10379958;28;19925;-74
2021/09/18 08:28:43;;;;;;;;;;;;;;;;;;10378327;28;19933;-75
2021/09/18 08:33:46;;;;;;;;;;;;;;;;;;10378973;28;19925;-75
2021/09/18 08:38:51;;;;;;;;;;;;;;;;;;10435223;23;19925;-75
2021/09/18 08:43:54;;;;;;;;;;;;;;;;;;10338554;28;20356;-76
2021/09/18 08:48:57;;;;;;;;;;;;;;;;;;10339131;28;19926;-74
2021/09/18 08:54:00;;;;;;;;;;;;;;;;;;10336421;28;19929;-77
2021/09/18 08:59:03;;;;;;;;;;;;;;;;;;10336032;28;20295;-77
2021/09/18 09:04:07;;;;;;;;;;;;;;;;;;10336979;28;20024;-73
2021/09/18 09:09:13;;;;;;;;;;;;;;;;;;10337263;28;19949;-75
2021/09/18 09:14:17;;;;;;;;;;;;;;;;;;10336601;28;19926;-73
2021/09/18 09:19:24;;;;;;;;;;;;;;;;;;10339320;28;19925;-74
2021/09/18 09:24:26;;;;;;;;;;;;;;;;;;10335564;28;20305;-78
2021/09/18 09:29:29;;;;;;;;;;;;;;;;;;10336567;28;20247;-72
2021/09/18 09:34:32;;;;;;;;;;;;;;;;;;10336940;28;19926;-74
2021/09/18 09:39:35;;;;;;;;;;;;;;;;;;10334511;28;20040;-74
2021/09/18 09:44:37;;;;;;;;;;;;;;;;;;10335805;28;20432;-73
2021/09/18 09:49:40;;;;;;;;;;;;;;;;;;10335795;28;19929;-72
2021/09/18 09:54:43;;;;;;;;;;;;;;;;;;10335315;28;20275;-71
2021/09/18 09:59:45;;;;;;;;;;;;;;;;;;10335100;28;19925;-72
2021/09/18 10:04:48;;;;;;;;;;;;;;;;;;10333661;28;19957;-75
2021/09/18 10:09:51;;;;;;;;;;;;;;;;;;10331782;28;19929;-75
2021/09/18 10:14:56;;;;;;;;;;;;;;;;;;10333643;28;19926;-74
2021/09/18 10:20:08;;;;;;;;;;;;;;;;;;10347470;28;19976;-77
2021/09/18 10:25:12;;;;;;;;;;;;;;;;;;10342130;28;19929;-76
2021/09/18 10:30:15;;;;;;;;;;;;;;;;;;10350320;28;20430;-74
2021/09/18 10:35:17;;;;;;;;;;;;;;;;;;10352841;28;19932;-75
2021/09/18 10:40:21;;;;;;;;;;;;;;;;;;10355106;28;19930;-77
2021/09/18 10:45:23;;;;;;;;;;;;;;;;;;10354714;28;19925;-75
2021/09/18 10:50:27;;;;;;;;;;;;;;;;;;10352562;28;20025;-78
2021/09/18 10:55:33;;;;;;;;;;;;;;;;;;10354029;28;20292;-72
2021/09/18 11:00:36;;;;;;;;;;;;;;;;;;10350994;28;19925;-74
2021/09/18 11:05:39;;;;;;;;;;;;;;;;;;10334362;28;19988;-75
2021/09/18 11:10:42;;;;;;;;;;;;;;;;;;10328326;28;19926;-73
2021/09/18 11:15:47;;;;;;;;;;;;;;;;;;10329540;28;19926;-77
2021/09/18 11:20:49;;;;;;;;;;;;;;;;;;10328961;28;19933;-71
2021/09/18 11:25:52;;;;;;;;;;;;;;;;;;10326366;28;19933;-75
2021/09/18 11:30:56;;;;;;;;;;;;;;;;;;10328389;28;20293;-77
2021/09/18 11:35:59;;;;;;;;;;;;;;;;;;10331118;28;20392;-75
2021/09/18 11:41:01;;;;;;;;;;;;;;;;;;10334610;28;20340;-75
2021/09/18 11:46:04;;;;;;;;;;;;;;;;;;10339483;28;19949;-75
2021/09/18 11:51:09;;;;;;;;;;;;;;;;;;10341189;28;19926;-75
2021/09/18 11:56:12;;;;;;;;;;;;;;;;;;10339303;28;19932;-75
2021/09/18 12:01:16;;;;;;;;;;;;;;;;;;10338786;28;20008;-75
2021/09/18 12:06:19;;;;;;;;;;;;;;;;;;10340401;28;20013;-73
2021/09/18 12:11:22;;;;;;;;;;;;;;;;;;10353301;28;19926;-75
2021/09/18 12:16:25;;;;;;;;;;;;;;;;;;10359254;28;19932;-75
2021/09/18 12:21:28;;;;;;;;;;;;;;;;;;10357626;28;19929;-75
2021/09/18 12:26:30;;;;;;;;;;;;;;;;;;10340299;28;19930;-74
2021/09/18 12:31:33;;;;;;;;;;;;;;;;;;10339094;28;19932;-75
2021/09/18 12:36:35;;;;;;;;;;;;;;;;;;10339325;28;19926;-72
2021/09/18 12:41:38;;;;;;;;;;;;;;;;;;10336880;28;19932;-75
2021/09/18 12:46:44;;;;;;;;;;;;;;;;;;10338527;28;20373;-72
2021/09/18 12:51:47;;;;;;;;;;;;;;;;;;10344306;28;19930;-72
2021/09/18 12:56:51;;;;;;;;;;;;;;;;;;10336959;28;19975;-76
2021/09/18 13:01:54;;;;;;;;;;;;;;;;;;10338175;28;19925;-76
2021/09/18 13:06:57;;;;;;;;;;;;;;;;;;10338367;28;19933;-72
2021/09/18 13:12:03;;;;;;;;;;;;;;;;;;10337883;28;20392;-74
2021/09/18 13:17:07;;;;;;;;;;;;;;;;;;10337365;28;19980;-73
2021/09/18 13:22:10;;;;;;;;;;;;;;;;;;10337233;28;19925;-74
2021/09/18 13:27:14;;;;;;;;;;;;;;;;;;10336141;28;19926;-73
2021/09/18 13:32:20;;;;;;;;;;;;;;;;;;10335544;28;19930;-76
2021/09/18 13:37:23;;;;;;;;;;;;;;;;;;10331420;28;20016;-73
2021/09/18 13:42:27;;;;;;;;;;;;;;;;;;10351173;28;19932;-76
2021/09/18 13:47:30;;;;;;;;;;;;;;;;;;10336117;28;19932;-71
2021/09/18 13:52:32;;;;;;;;;;;;;;;;;;10350664;28;19926;-71
2021/09/18 13:57:40;;;;;;;;;;;;;;;;;;10336065;28;19972;-75
2021/09/18 14:02:42;;;;;;;;;;;;;;;;;;10348560;28;20448;-72
2021/09/18 14:07:45;;;;;;;;;;;;;;;;;;10338962;28;19926;-72
2021/09/18 14:12:48;;;;;;;;;;;;;;;;;;10333020;28;20377;-72
2021/09/18 14:17:51;;;;;;;;;;;;;;;;;;10333813;28;19936;-76
2021/09/18 14:22:55;;;;;;;;;;;;;;;;;;10334143;28;19933;-72
2021/09/18 14:27:58;;;;;;;;;;;;;;;;;;10334232;28;19936;-75
2021/09/18 14:33:01;;;;;;;;;;;;;;;;;;10332576;28;19930;-71
2021/09/18 14:38:04;;;;;;;;;;;;;;;;;;10334085;28;20452;-73
2021/09/18 14:43:11;;;;;;;;;;;;;;;;;;10333436;28;19956;-76
2021/09/18 14:48:16;;;;;;;;;;;;;;;;;;10332510;28;20266;-75
2021/09/18 14:53:20;;;;;;;;;;;;;;;;;;10332399;28;19926;-76
2021/09/18 14:58:23;;;;;;;;;;;;;;;;;;10332120;28;20021;-76
2021/09/18 15:03:27;;;;;;;;;;;;;;;;;;10332754;28;19926;-73
2021/09/18 15:08:29;;;;;;;;;;;;;;;;;;10333149;28;19976;-76
2021/09/18 15:13:32;;;;;;;;;;;;;;;;;;10329269;28;19937;-78
2021/09/18 15:18:35;;;;;;;;;;;;;;;;;;10332218;28;19926;-74
2021/09/18 15:23:38;;;;;;;;;;;;;;;;;;10331847;28;19933;-74
2021/09/18 15:28:40;;;;;;;;;;;;;;;;;;10326397;28;20293;-77
2021/09/18 15:33:44;;;;;;;;;;;;;;;;;;10329962;28;20017;-78
2021/09/18 15:38:47;;;;;;;;;;;;;;;;;;10327003;28;19926;-78
2021/09/18 15:43:50;;;;;;;;;;;;;;;;;;10333351;28;19930;-76
2021/09/18 15:48:55;;;;;;;;;;;;;;;;;;10325275;28;19926;-77
2021/09/18 15:53:57;;;;;;;;;;;;;;;;;;10326916;28;19933;-78
2021/09/18 15:59:02;;;;;;;;;;;;;;;;;;10311560;28;19933;-78
2021/09/18 16:04:05;;;;;;;;;;;;;;;;;;10328456;28;19969;-80
2021/09/18 16:09:07;;;;;;;;;;;;;;;;;;10328882;28;19926;-75
2021/09/18 16:14:13;;;;;;;;;;;;;;;;;;10326115;28;19926;-75
2021/09/18 16:19:16;;;;;;;;;;;;;;;;;;10326911;28;19936;-80
2021/09/18 16:24:19;;;;;;;;;;;;;;;;;;10328390;28;20044;-79
2021/09/18 16:29:23;;;;;;;;;;;;;;;;;;10332654;28;19940;-74
2021/09/18 16:34:26;;;;;;;;;;;;;;;;;;10337494;28;19961;-80
2021/09/18 16:39:30;;;;;;;;;;;;;;;;;;10335413;28;19932;-80
2021/09/18 16:44:34;;;;;;;;;;;;;;;;;;10340081;28;20414;-78
2021/09/18 16:49:37;;;;;;;;;;;;;;;;;;10330351;28;19926;-78
2021/09/18 16:54:43;;;;;;;;;;;;;;;;;;10335232;28;20282;-79
2021/09/18 16:59:46;;;;;;;;;;;;;;;;;;10333551;28;19925;-76
2021/09/18 17:04:49;;;;;;;;;;;;;;;;;;10337611;28;19936;-77
2021/09/18 17:09:53;;;;;;;;;;;;;;;;;;10360719;28;19930;-80
2021/09/18 17:14:56;;;;;;;;;;;;;;;;;;10331989;28;20378;-81
2021/09/18 17:19:58;;;;;;;;;;;;;;;;;;10355215;28;19930;-77
2021/09/18 17:25:03;;;;;;;;;;;;;;;;;;10354646;28;19929;-77
2021/09/18 17:30:06;;;;;;;;;;;;;;;;;;10344156;28;19926;-78
2021/09/18 17:35:08;;;;;;;;;;;;;;;;;;10335371;28;19933;-78
2021/09/18 17:40:11;;;;;;;;;;;;;;;;;;10334497;28;19933;-78
2021/09/18 17:45:14;;;;;;;;;;;;;;;;;;10370821;28;19925;-74
2021/09/18 17:50:17;;;;;;;;;;;;;;;;;;10343498;28;19926;-73
2021/09/18 17:55:19;;;;;;;;;;;;;;;;;;10334446;28;19932;-79
2021/09/18 18:00:29;;;;;;;;;;;;;;;;;;10333535;28;20412;-72
2021/09/18 18:05:33;;;;;;;;;;;;;;;;;;10333412;28;19937;-79
2021/09/18 18:10:36;;;;;;;;;;;;;;;;;;10333982;28;19933;-74
2021/09/18 18:15:39;;;;;;;;;;;;;;;;;;10332372;28;20318;-72
2021/09/18 18:20:47;;;;;;;;;;;;;;;;;;10334248;28;19933;-79
2021/09/18 18:25:50;;;;;;;;;;;;;;;;;;10333611;28;19948;-74
2021/09/18 18:30:54;;;;;;;;;;;;;;;;;;10332486;28;20309;-82
2021/09/18 18:35:58;;;;;;;;;;;;;;;;;;10333467;28;20345;-73
2021/09/18 18:41:05;;;;;;;;;;;;;;;;;;10332458;28;20381;-82
2021/09/18 18:46:07;;;;;;;;;;;;;;;;;;10332635;28;19929;-82
2021/09/18 18:51:10;;;;;;;;;;;;;;;;;;10331295;28;19926;-75
2021/09/18 18:56:13;;;;;;;;;;;;;;;;;;10332563;28;19930;-72
2021/09/18 19:01:16;;;;;;;;;;;;;;;;;;10331732;28;20341;-72
2021/09/18 19:06:20;;;;;;;;;;;;;;;;;;10332902;28;20408;-72
2021/09/18 19:11:25;;;;;;;;;;;;;;;;;;10331189;28;19929;-74
2021/09/18 19:16:29;;;;;;;;;;;;;;;;;;10331435;28;19926;-73
2021/09/18 19:21:33;;;;;;;;;;;;;;;;;;10327376;28;19929;-83
2021/09/18 19:26:38;;;;;;;;;;;;;;;;;;10332594;28;19926;-79
2021/09/18 19:31:42;;;;;;;;;;;;;;;;;;10329843;28;19972;-73
2021/09/18 19:36:46;;;;;;;;;;;;;;;;;;10330805;28;19926;-84
2021/09/18 19:41:51;;;;;;;;;;;;;;;;;;10332033;28;19926;-84
2021/09/18 19:46:54;;;;;;;;;;;;;;;;;;10331274;28;19925;-72
2021/09/18 19:51:57;;;;;;;;;;;;;;;;;;10329878;28;19933;-79
2021/09/18 19:56:59;;;;;;;;;;;;;;;;;;10328877;28;19948;-79
2021/09/18 20:02:02;;;;;;;;;;;;;;;;;;10333677;28;20297;-79
2021/09/18 20:07:05;;;;;;;;;;;;;;;;;;10339148;28;19925;-79
2021/09/18 20:12:07;;;;;;;;;;;;;;;;;;10338887;28;19933;-74
2021/09/18 20:17:10;;;;;;;;;;;;;;;;;;10338817;28;19932;-84
2021/09/18 20:22:12;;;;;;;;;;;;;;;;;;10337156;28;19933;-78
2021/09/18 20:27:18;;;;;;;;;;;;;;;;;;10337295;28;19930;-73
2021/09/18 20:32:23;;;;;;;;;;;;;;;;;;10338369;28;19929;-73
2021/09/18 20:37:30;;;;;;;;;;;;;;;;;;10430134;23;19925;-85
2021/09/18 20:42:34;;;;;;;;;;;;;;;;;;10377192;28;19929;-78
2021/09/18 20:47:38;;;;;;;;;;;;;;;;;;10378068;28;19932;-74
2021/09/18 20:52:41;;;;;;;;;;;;;;;;;;10377542;28;20019;-84
2021/09/18 20:57:44;;;;;;;;;;;;;;;;;;10376698;28;19929;-83
2021/09/18 21:08:16;;;;;;;;;;;;;;;;;;10376443;28;19933;-83
2021/09/18 21:13:19;;;;;;;;;;;;;;;;;;10374270;28;19948;-74
2021/09/18 21:18:22;;;;;;;;;;;;;;;;;;10377113;28;19926;-73
2021/09/18 21:23:24;;;;;;;;;;;;;;;;;;10376928;28;19937;-83
2021/09/18 21:28:27;;;;;;;;;;;;;;;;;;10376671;28;20455;-79
2021/09/18 21:33:30;;;;;;;;;;;;;;;;;;10358584;28;20392;-78
2021/09/18 21:38:35;;;;;;;;;;;;;;;;;;10375074;28;19972;-78
2021/09/18 21:43:40;;;;;;;;;;;;;;;;;;10340818;28;19955;-77
2021/09/18 21:48:42;;;;;;;;;;;;;;;;;;10370228;28;19936;-78
2021/09/18 21:53:46;;;;;;;;;;;;;;;;;;10369735;28;19936;-74
2021/09/18 21:58:50;;;;;;;;;;;;;;;;;;10369520;28;20264;-76
2021/09/18 22:03:53;;;;;;;;;;;;;;;;;;10369580;28;19930;-76
2021/09/18 22:08:56;;;;;;;;;;;;;;;;;;10369191;28;20024;-76
2021/09/18 22:14:03;;;;;;;;;;;;;;;;;;10372486;28;19925;-72
2021/09/18 22:19:06;;;;;;;;;;;;;;;;;;10374687;28;19932;-84
2021/09/18 22:24:08;;;;;;;;;;;;;;;;;;10374447;28;19930;-82
2021/09/18 22:29:11;;;;;;;;;;;;;;;;;;10373967;28;20392;-74
2021/09/18 22:34:15;;;;;;;;;;;;;;;;;;10374366;28;19929;-77
2021/09/18 22:39:18;;;;;;;;;;;;;;;;;;10373880;28;19973;-76
2021/09/18 22:44:20;;;;;;;;;;;;;;;;;;10373515;28;19925;-72
2021/09/18 22:49:24;;;;;;;;;;;;;;;;;;10374265;28;19926;-80
2021/09/18 22:54:26;;;;;;;;;;;;;;;;;;10372237;28;19929;-85
2021/09/18 22:59:31;;;;;;;;;;;;;;;;;;10375221;28;19932;-86
2021/09/18 23:04:34;;;;;;;;;;;;;;;;;;10374036;28;19975;-72
2021/09/18 23:09:38;;;;;;;;;;;;;;;;;;10374087;28;19926;-86
2021/09/18 23:14:41;;;;;;;;;;;;;;;;;;10373547;28;19933;-85
2021/09/18 23:19:44;;;;;;;;;;;;;;;;;;10373492;28;20381;-74
2021/09/18 23:24:48;;;;;;;;;;;;;;;;;;10373769;28;19929;-85
2021/09/18 23:29:50;;;;;;;;;;;;;;;;;;10373101;28;19975;-78
2021/09/18 23:34:53;;;;;;;;;;;;;;;;;;10372871;28;19933;-85
2021/09/18 23:39:56;;;;;;;;;;;;;;;;;;10363159;28;19933;-74
2021/09/18 23:44:59;;;;;;;;;;;;;;;;;;10381380;28;19936;-72
2021/09/18 23:50:02;;;;;;;;;;;;;;;;;;10379988;28;19975;-73
2021/09/18 23:55:04;;;;;;;;;;;;;;;;;;10380744;28;19926;-84
